createdAt,value
2022-10-21T00:00:53.878Z,98695.00
2022-10-21T00:03:22.334Z,98679.72
2022-10-21T00:05:50.031Z,98708.72
2022-10-21T00:08:18.471Z,98720.03
2022-10-21T00:10:46.039Z,98690.53
2022-10-21T00:13:13.339Z,98670.09
2022-10-21T00:15:40.260Z,98677.41
2022-10-21T00:18:07.369Z,98650.13
2022-10-21T00:20:37.295Z,98675.25
2022-10-21T00:23:07.312Z,98676.78
2022-10-21T00:25:34.266Z,98708.78
2022-10-21T00:28:01.514Z,98717.06
2022-10-21T00:30:28.423Z,98695.72
2022-10-21T00:32:59.330Z,98675.06
2022-10-21T00:35:32.355Z,98663.34
2022-10-21T00:37:59.452Z,98656.91
2022-10-21T00:40:26.480Z,98678.38
2022-10-21T00:42:53.723Z,98666.06
2022-10-21T00:45:24.235Z,98642.38
2022-10-21T00:48:03.403Z,98663.13
2022-10-21T00:50:38.734Z,98653.69
2022-10-21T00:53:14.475Z,98665.47
2022-10-21T00:55:49.957Z,98673.28
2022-10-21T00:58:21.495Z,98672.09
2022-10-21T01:00:50.485Z,98649.50
2022-10-21T01:03:17.703Z,98644.91
2022-10-21T01:05:45.328Z,98650.22
2022-10-21T01:08:12.894Z,98667.84
2022-10-21T01:10:40.487Z,98633.75
2022-10-21T01:14:11.903Z,98629.66
2022-10-21T01:17:00.688Z,98634.00
2022-10-21T01:20:28.067Z,98606.53
2022-10-21T01:23:43.629Z,98613.41
2022-10-21T01:26:58.365Z,98618.50
2022-10-21T01:29:57.762Z,98635.75
2022-10-21T01:32:48.955Z,98649.59
2022-10-21T01:35:49.435Z,98645.78
2022-10-21T01:39:09.780Z,98626.94
2022-10-21T01:44:57.674Z,98632.06
2022-10-21T01:47:43.400Z,98648.91
2022-10-21T01:50:34.780Z,98640.91
2022-10-21T01:53:11.751Z,98642.50
2022-10-21T01:55:40.974Z,98641.13
2022-10-21T01:58:19.569Z,98638.31
2022-10-21T02:00:48.806Z,98647.91
2022-10-21T02:03:28.949Z,98657.63
2022-10-21T02:05:56.081Z,98673.09
2022-10-21T02:08:23.233Z,98654.94
2022-10-21T02:10:56.893Z,98645.06
2022-10-21T02:13:31.119Z,98627.59
2022-10-21T02:16:03.483Z,98637.28
2022-10-21T02:18:30.643Z,98621.72
2022-10-21T02:21:06.251Z,98584.19
2022-10-21T02:23:50.713Z,98561.81
2022-10-21T02:26:18.284Z,98595.34
2022-10-21T02:28:45.808Z,98594.56
2022-10-21T02:31:22.056Z,98587.00
2022-10-21T02:34:17.326Z,98598.44
2022-10-21T02:37:11.947Z,98616.59
2022-10-21T02:39:56.205Z,98597.44
2022-10-21T02:42:31.227Z,98604.28
2022-10-21T02:45:01.480Z,98603.13
2022-10-21T02:47:29.750Z,98595.78
2022-10-21T02:49:56.708Z,98590.34
2022-10-21T02:52:23.694Z,98588.34
2022-10-21T02:54:50.594Z,98580.25
2022-10-21T02:57:17.649Z,98595.56
2022-10-21T02:59:44.698Z,98583.44
2022-10-21T03:02:11.592Z,98584.59
2022-10-21T03:04:38.668Z,98585.13
2022-10-21T03:07:05.784Z,98593.88
2022-10-21T03:09:32.768Z,98585.31
2022-10-21T03:11:59.742Z,98597.81
2022-10-21T03:14:26.811Z,98589.59
2022-10-21T03:16:53.757Z,98600.69
2022-10-21T03:19:20.670Z,98609.94
2022-10-21T03:21:47.746Z,98596.53
2022-10-21T03:24:24.950Z,98602.53
2022-10-21T03:26:55.696Z,98601.25
2022-10-21T03:29:22.626Z,98600.41
2022-10-21T03:31:49.635Z,98595.22
2022-10-21T03:34:16.827Z,98594.56
2022-10-21T03:36:43.765Z,98590.22
2022-10-21T03:39:12.163Z,98613.28
2022-10-21T03:41:39.409Z,98610.03
2022-10-21T03:44:06.609Z,98613.13
2022-10-21T03:46:33.662Z,98612.91
2022-10-21T03:49:04.285Z,98621.03
2022-10-21T03:51:32.891Z,98600.53
2022-10-21T03:53:59.858Z,98618.03
2022-10-21T03:56:27.142Z,98614.38
2022-10-21T03:58:58.507Z,98610.88
2022-10-21T04:01:27.371Z,98592.72
2022-10-21T04:03:54.571Z,98577.53
2022-10-21T04:06:21.574Z,98571.13
2022-10-21T04:08:48.779Z,98558.22
2022-10-21T04:11:16.033Z,98574.28
2022-10-21T04:13:43.149Z,98581.13
2022-10-21T04:16:19.768Z,98574.28
2022-10-21T04:18:47.351Z,98575.41
2022-10-21T04:21:14.724Z,98576.00
2022-10-21T04:23:42.195Z,98582.13
2022-10-21T04:26:09.917Z,98568.19
2022-10-21T04:28:37.577Z,98579.66
2022-10-21T04:31:04.935Z,98584.91
2022-10-21T04:33:31.905Z,98569.44
2022-10-21T04:35:59.273Z,98558.19
2022-10-21T04:38:26.889Z,98569.97
2022-10-21T04:41:02.963Z,98540.81
2022-10-21T04:43:30.553Z,98535.31
2022-10-21T04:45:57.478Z,98560.75
2022-10-21T04:48:24.633Z,98563.38
2022-10-21T04:50:53.008Z,98565.78
2022-10-21T04:53:21.279Z,98555.88
2022-10-21T04:55:53.490Z,98543.38
2022-10-21T04:58:22.384Z,98562.47
2022-10-21T05:00:53.283Z,98526.47
2022-10-21T05:03:21.094Z,98517.38
2022-10-21T05:05:52.481Z,98536.72
2022-10-21T05:08:20.902Z,98535.97
2022-10-21T05:10:48.233Z,98560.38
2022-10-21T05:13:15.684Z,98566.91
2022-10-21T05:15:42.950Z,98560.81
2022-10-21T05:18:12.287Z,98522.38
2022-10-21T05:20:39.396Z,98518.34
2022-10-21T05:23:06.327Z,98536.06
2022-10-21T05:25:34.366Z,98520.63
2022-10-21T05:28:01.990Z,98548.44
2022-10-21T05:30:29.029Z,98543.50
2022-10-21T05:32:56.159Z,98507.41
2022-10-21T05:35:23.337Z,98507.94
2022-10-21T05:37:50.203Z,98462.56
2022-10-21T05:40:18.491Z,98440.34
2022-10-21T05:42:45.961Z,98471.88
2022-10-21T05:45:12.981Z,98514.31
2022-10-21T05:47:44.061Z,98475.66
2022-10-21T05:50:12.747Z,98469.31
2022-10-21T05:52:40.944Z,98484.19
2022-10-21T05:55:09.745Z,98503.66
2022-10-21T05:57:38.571Z,98489.38
2022-10-21T06:00:07.361Z,98510.53
2022-10-21T06:02:35.967Z,98500.56
2022-10-21T06:05:04.051Z,98483.22
2022-10-21T06:07:30.992Z,98478.25
2022-10-21T06:09:58.087Z,98492.13
2022-10-21T06:12:25.460Z,98512.38
2022-10-21T06:14:52.444Z,98506.59
2022-10-21T06:17:19.456Z,98515.22
2022-10-21T06:19:50.021Z,98497.50
2022-10-21T06:22:18.047Z,98526.81
2022-10-21T06:24:46.182Z,98513.00
2022-10-21T06:27:13.806Z,98510.59
2022-10-21T06:29:40.958Z,98516.13
2022-10-21T06:32:07.862Z,98515.63
2022-10-21T06:34:34.798Z,98479.53
2022-10-21T06:37:01.695Z,98498.84
2022-10-21T06:39:28.705Z,98483.84
2022-10-21T06:41:55.792Z,98483.13
2022-10-21T06:44:39.592Z,98471.59
2022-10-21T06:47:06.955Z,98467.47
2022-10-21T06:49:34.003Z,98469.41
2022-10-21T06:52:01.116Z,98455.19
2022-10-21T06:54:28.287Z,98473.47
2022-10-21T06:56:55.420Z,98470.88
2022-10-21T06:59:22.581Z,98506.06
2022-10-21T07:01:59.695Z,98499.09
2022-10-21T07:04:28.173Z,98487.84
2022-10-21T07:06:55.404Z,98494.53
2022-10-21T07:09:22.701Z,98491.34
2022-10-21T07:11:49.697Z,98469.59
2022-10-21T07:14:16.913Z,98530.13
2022-10-21T07:16:43.893Z,98567.41
2022-10-21T07:19:11.406Z,98542.25
2022-10-21T07:21:38.550Z,98563.53
2022-10-21T07:24:06.300Z,98567.63
2022-10-21T07:26:34.769Z,98587.81
2022-10-21T07:29:02.374Z,98616.75
2022-10-21T07:31:34.485Z,98647.81
2022-10-21T07:36:39.819Z,98634.84
2022-10-21T07:39:12.591Z,98607.63
2022-10-21T07:41:47.582Z,98634.19
2022-10-21T07:44:16.477Z,98615.75
2022-10-21T07:46:44.684Z,98612.91
2022-10-21T07:49:13.635Z,98652.72
2022-10-21T07:51:41.941Z,98634.44
2022-10-21T07:54:09.818Z,98631.03
2022-10-21T07:56:45.527Z,98660.13
2022-10-21T07:59:14.855Z,98649.75
2022-10-21T08:01:44.601Z,98654.56
2022-10-21T08:04:15.954Z,98662.78
2022-10-21T08:06:46.515Z,98684.31
2022-10-21T08:09:15.393Z,98655.06
2022-10-21T08:11:42.741Z,98681.72
2022-10-21T08:14:11.796Z,98681.25
2022-10-21T08:16:39.195Z,98671.81
2022-10-21T08:19:07.583Z,98701.28
2022-10-21T08:21:36.410Z,98710.84
2022-10-21T08:24:04.773Z,98713.97
2022-10-21T08:26:32.280Z,98726.50
2022-10-21T08:28:59.549Z,98721.06
2022-10-21T08:31:26.480Z,98716.94
2022-10-21T08:33:55.569Z,98719.41
2022-10-21T08:36:25.767Z,98722.06
2022-10-21T08:38:53.571Z,98733.97
2022-10-21T08:41:29.702Z,98730.53
2022-10-21T08:44:20.318Z,98747.72
2022-10-21T08:47:11.277Z,98736.81
2022-10-21T08:50:16.492Z,98749.66
2022-10-21T08:52:59.884Z,98743.47
2022-10-21T08:55:38.004Z,98746.25
2022-10-21T08:58:05.377Z,98768.78
2022-10-21T09:01:26.425Z,98771.50
2022-10-21T09:04:04.293Z,98770.44
2022-10-21T09:06:57.810Z,98768.16
2022-10-21T09:09:41.081Z,98768.84
2022-10-21T09:12:49.051Z,98769.94
2022-10-21T09:15:45.434Z,98751.44
2022-10-21T09:18:30.921Z,98761.63
2022-10-21T09:22:33.565Z,98758.81
2022-10-21T09:25:15.001Z,98764.22
2022-10-21T09:27:55.613Z,98760.09
2022-10-21T09:30:25.231Z,98763.50
2022-10-21T09:32:59.970Z,98758.13
2022-10-21T09:35:41.021Z,98757.13
2022-10-21T09:38:13.590Z,98766.41
2022-10-21T09:40:40.694Z,98770.22
2022-10-21T09:43:24.902Z,98772.63
2022-10-21T09:45:52.713Z,98771.25
2022-10-21T09:48:25.307Z,98767.69
2022-10-21T09:51:02.273Z,98745.16
2022-10-21T09:53:52.899Z,98750.94
2022-10-21T09:56:27.953Z,98766.44
2022-10-21T09:59:14.275Z,98777.19
2022-10-21T10:01:43.972Z,98776.81
2022-10-21T10:04:22.310Z,98773.53
2022-10-21T10:06:50.445Z,98765.63
2022-10-21T10:09:34.482Z,98780.66
2022-10-21T10:12:13.265Z,98768.84
2022-10-21T10:14:47.014Z,98769.06
2022-10-21T10:17:37.333Z,98770.66
2022-10-21T10:20:04.296Z,98767.50
2022-10-21T10:22:43.461Z,98781.66
2022-10-21T10:25:22.047Z,98787.97
2022-10-21T10:28:20.503Z,98776.19
2022-10-21T10:30:52.416Z,98783.81
2022-10-21T10:33:26.490Z,98780.91
2022-10-21T10:36:05.202Z,98776.00
2022-10-21T10:38:52.406Z,98750.91
2022-10-21T10:41:19.831Z,98767.63
2022-10-21T10:43:51.694Z,98774.41
2022-10-21T10:46:30.469Z,98790.81
2022-10-21T10:49:12.786Z,98787.88
2022-10-21T10:51:42.970Z,98788.59
2022-10-21T10:54:24.898Z,98773.72
2022-10-21T10:57:26.553Z,98799.41
2022-10-21T11:00:23.594Z,98790.56
2022-10-21T11:03:13.620Z,98805.53
2022-10-21T11:05:56.167Z,98795.28
2022-10-21T11:08:34.311Z,98780.88
2022-10-21T11:11:06.868Z,98779.34
2022-10-21T11:13:38.815Z,98796.06
2022-10-21T11:16:23.284Z,98771.84
2022-10-21T11:19:15.476Z,98788.88
2022-10-21T11:21:54.504Z,98772.56
2022-10-21T11:25:04.574Z,98778.97
2022-10-21T11:28:19.030Z,98804.91
2022-10-21T11:31:43.719Z,98800.44
2022-10-21T11:35:08.393Z,98784.09
2022-10-21T11:37:50.702Z,98792.06
2022-10-21T11:40:28.785Z,98789.44
2022-10-21T11:43:01.973Z,98802.28
2022-10-21T11:46:08.136Z,98804.84
2022-10-21T11:49:18.101Z,98821.59
2022-10-21T11:52:18.766Z,98820.81
2022-10-21T11:55:09.614Z,98811.50
2022-10-21T11:58:20.140Z,98823.28
2022-10-21T12:01:24.224Z,98821.50
2022-10-21T12:04:21.848Z,98834.44
2022-10-21T12:07:13.918Z,98830.19
2022-10-21T12:10:21.087Z,98838.00
2022-10-21T12:12:51.333Z,98837.00
2022-10-21T12:15:29.128Z,98845.69
2022-10-21T12:17:58.102Z,98832.38
2022-10-21T12:20:27.212Z,98805.00
2022-10-21T12:23:05.507Z,98804.34
2022-10-21T12:25:48.992Z,98805.13
2022-10-21T12:28:36.375Z,98801.72
2022-10-21T12:31:40.428Z,98786.66
2022-10-21T12:34:10.737Z,98790.00
2022-10-21T12:36:40.933Z,98776.94
2022-10-21T12:39:34.161Z,98761.09
2022-10-21T12:42:27.995Z,98779.84
2022-10-21T12:44:54.966Z,98781.31
2022-10-21T12:47:42.289Z,98786.00
2022-10-21T12:50:15.256Z,98769.19
2022-10-21T12:52:44.926Z,98780.44
2022-10-21T12:55:27.116Z,98750.13
2022-10-21T12:58:02.607Z,98765.69
2022-10-21T13:00:29.475Z,98776.81
2022-10-21T13:03:21.936Z,98790.91
2022-10-21T13:05:49.909Z,98788.88
2022-10-21T13:08:22.938Z,98772.44
2022-10-21T13:11:05.644Z,98769.50
2022-10-21T13:13:43.637Z,98781.34
2022-10-21T13:16:19.845Z,98781.97
2022-10-21T13:19:04.637Z,98771.50
2022-10-21T13:21:41.439Z,98800.72
2022-10-21T13:24:11.475Z,98771.75
2022-10-21T13:27:01.507Z,98783.03
2022-10-21T13:29:33.965Z,98774.56
2022-10-21T13:32:19.019Z,98756.22
2022-10-21T13:34:58.127Z,98737.19
2022-10-21T13:37:35.422Z,98748.97
2022-10-21T13:40:18.560Z,98731.22
2022-10-21T13:42:59.497Z,98719.59
2022-10-21T13:45:36.439Z,98732.44
2022-10-21T13:48:07.176Z,98720.31
2022-10-21T13:50:40.785Z,98737.41
2022-10-21T13:53:38.090Z,98744.09
2022-10-21T13:56:08.710Z,98719.22
2022-10-21T13:58:41.168Z,98747.41
2022-10-21T14:01:20.388Z,98735.34
2022-10-21T14:06:36.445Z,98724.13
2022-10-21T14:09:08.165Z,98721.66
2022-10-21T14:11:45.885Z,98741.09
2022-10-21T14:14:17.491Z,98743.88
2022-10-21T14:17:03.209Z,98753.31
2022-10-21T14:19:35.517Z,98739.31
2022-10-21T14:24:43.797Z,98728.28
2022-10-21T14:27:26.629Z,98728.91
2022-10-21T14:29:54.543Z,98711.66
2022-10-21T14:32:25.753Z,98734.81
2022-10-21T14:35:09.763Z,98720.72
2022-10-21T14:37:47.123Z,98742.81
2022-10-21T14:43:22.906Z,98736.09
2022-10-21T14:45:54.274Z,98722.19
2022-10-21T14:48:32.225Z,98722.88
2022-10-21T14:51:13.571Z,98717.66
2022-10-21T14:54:02.048Z,98727.72
2022-10-21T14:56:40.605Z,98727.97
2022-10-21T14:59:39.412Z,98732.91
2022-10-21T15:02:21.772Z,98739.81
2022-10-21T15:04:52.909Z,98742.25
2022-10-21T15:10:24.892Z,98734.81
2022-10-21T15:12:52.758Z,98743.25
2022-10-21T15:15:55.932Z,98735.56
2022-10-21T15:18:36.677Z,98732.97
2022-10-21T15:21:09.861Z,98752.41
2022-10-21T15:23:41.367Z,98737.41
2022-10-21T15:26:23.243Z,98717.56
2022-10-21T15:28:51.883Z,98699.56
2022-10-21T15:31:29.356Z,98703.72
2022-10-21T15:33:58.514Z,98722.00
2022-10-21T15:36:25.873Z,98712.16
2022-10-21T15:38:54.646Z,98731.63
2022-10-21T15:41:26.132Z,98727.25
2022-10-21T15:44:13.858Z,98717.38
2022-10-21T15:46:47.015Z,98716.06
2022-10-21T15:49:22.439Z,98698.78
2022-10-21T15:51:50.738Z,98708.03
2022-10-21T15:54:19.367Z,98701.47
2022-10-21T15:56:51.837Z,98693.97
2022-10-21T15:59:32.038Z,98698.41
2022-10-21T16:02:00.774Z,98664.78
2022-10-21T16:04:27.817Z,98691.47
2022-10-21T16:06:55.369Z,98676.13
2022-10-21T16:09:26.575Z,98678.13
2022-10-21T16:12:00.359Z,98685.56
2022-10-21T16:14:30.462Z,98692.94
2022-10-21T16:16:59.051Z,98694.91
2022-10-21T16:19:26.354Z,98668.91
2022-10-21T16:21:53.432Z,98654.19
2022-10-21T16:24:20.392Z,98663.63
2022-10-21T16:26:49.449Z,98669.59
2022-10-21T16:29:23.067Z,98686.75
2022-10-21T16:31:51.947Z,98659.50
2022-10-21T16:34:19.881Z,98656.84
2022-10-21T16:36:46.846Z,98657.34
2022-10-21T16:39:21.970Z,98656.13
2022-10-21T16:41:49.333Z,98670.63
2022-10-21T16:44:16.605Z,98638.84
2022-10-21T16:46:55.093Z,98650.03
2022-10-21T16:49:26.906Z,98637.81
2022-10-21T16:51:54.616Z,98654.94
2022-10-21T16:54:23.194Z,98631.13
2022-10-21T16:56:52.246Z,98639.13
2022-10-21T16:59:21.922Z,98617.72
2022-10-21T17:01:48.948Z,98613.56
2022-10-21T17:04:16.079Z,98632.63
2022-10-21T17:06:43.076Z,98644.38
2022-10-21T17:09:10.366Z,98631.78
2022-10-21T17:11:40.960Z,98626.75
2022-10-21T17:14:19.311Z,98604.00
2022-10-21T17:16:46.645Z,98607.22
2022-10-21T17:19:14.645Z,98621.78
2022-10-21T17:21:42.168Z,98600.94
2022-10-21T17:24:15.039Z,98594.72
2022-10-21T17:26:42.579Z,98604.97
2022-10-21T17:29:12.674Z,98605.88
2022-10-21T17:31:42.100Z,98608.13
2022-10-21T17:34:26.603Z,98596.41
2022-10-21T17:36:53.921Z,98621.22
2022-10-21T17:39:21.611Z,98630.06
2022-10-21T17:41:48.687Z,98606.63
2022-10-21T17:44:16.514Z,98634.84
2022-10-21T17:46:43.638Z,98626.03
2022-10-21T17:49:10.706Z,98624.22
2022-10-21T17:51:37.773Z,98631.97
2022-10-21T17:54:04.829Z,98594.13
2022-10-21T17:56:31.943Z,98607.41
2022-10-21T17:59:00.386Z,98643.75
2022-10-21T18:01:28.158Z,98656.56
2022-10-21T18:03:58.860Z,98624.94
2022-10-21T18:06:26.728Z,98632.44
2022-10-21T18:08:53.835Z,98620.75
2022-10-21T18:11:21.445Z,98614.00
2022-10-21T18:13:53.455Z,98591.63
2022-10-21T18:16:23.934Z,98602.91
2022-10-21T18:18:50.990Z,98593.09
2022-10-21T18:21:23.547Z,98604.97
2022-10-21T18:23:53.300Z,98596.91
2022-10-21T18:26:28.706Z,98616.31
2022-10-21T18:29:00.505Z,98613.16
2022-10-21T18:31:32.218Z,98604.44
2022-10-21T18:34:01.202Z,98650.22
2022-10-21T18:36:28.503Z,98632.63
2022-10-21T18:38:57.336Z,98618.25
2022-10-21T18:41:24.385Z,98590.88
2022-10-21T18:43:55.765Z,98597.44
2022-10-21T18:46:23.422Z,98594.13
2022-10-21T18:48:50.892Z,98597.84
2022-10-21T18:51:19.449Z,98616.06
2022-10-21T18:53:50.083Z,98615.06
2022-10-21T18:56:21.493Z,98595.97
2022-10-21T18:58:48.819Z,98637.16
2022-10-21T19:01:17.336Z,98636.69
2022-10-21T19:03:44.876Z,98620.53
2022-10-21T19:06:38.813Z,98616.09
2022-10-21T19:09:09.189Z,98598.69
2022-10-21T19:11:36.355Z,98623.09
2022-10-21T19:14:03.535Z,98635.22
2022-10-21T19:16:30.586Z,98613.56
2022-10-21T19:18:57.717Z,98611.81
2022-10-21T19:21:25.336Z,98614.72
2022-10-21T19:23:53.460Z,98643.59
2022-10-21T19:26:23.189Z,98677.88
2022-10-21T19:28:50.835Z,98719.72
2022-10-21T19:31:21.352Z,98728.41
2022-10-21T19:33:48.864Z,98716.72
2022-10-21T19:36:15.765Z,98708.34
2022-10-21T19:38:44.790Z,98714.22
2022-10-21T19:41:16.588Z,98731.06
2022-10-21T19:43:44.872Z,98719.09
2022-10-21T19:46:19.922Z,98721.53
2022-10-21T19:48:49.836Z,98737.03
2022-10-21T19:51:20.527Z,98753.03
2022-10-21T19:53:49.048Z,98721.56
2022-10-21T19:56:18.822Z,98739.75
2022-10-21T19:58:49.300Z,98713.69
2022-10-21T20:01:24.010Z,98721.47
2022-10-21T20:03:52.933Z,98732.53
2022-10-21T20:06:27.893Z,98710.38
2022-10-21T20:09:01.620Z,98746.09
2022-10-21T20:11:29.757Z,98755.56
2022-10-21T20:13:57.999Z,98735.38
2022-10-21T20:16:31.652Z,98757.31
2022-10-21T20:19:01.921Z,98761.19
2022-10-21T20:21:30.751Z,98792.28
2022-10-21T20:23:59.061Z,98796.94
2022-10-21T20:26:26.572Z,98800.22
2022-10-21T20:28:53.708Z,98789.59
2022-10-21T20:31:21.155Z,98844.72
2022-10-21T20:33:50.980Z,98865.47
2022-10-21T20:36:22.840Z,98873.78
2022-10-21T20:38:51.404Z,98858.28
2022-10-21T20:41:23.548Z,98847.06
2022-10-21T20:43:51.825Z,98869.06
2022-10-21T20:46:22.241Z,98881.41
2022-10-21T20:48:51.370Z,98869.94
2022-10-21T20:51:29.402Z,98871.63
2022-10-21T20:54:03.678Z,98869.94
2022-10-21T20:56:38.110Z,98850.44
2022-10-21T20:59:07.849Z,98808.00
2022-10-21T21:01:42.046Z,98813.53
2022-10-21T21:04:12.941Z,98807.91
2022-10-21T21:06:43.835Z,98807.13
2022-10-21T21:14:31.576Z,98778.41
2022-10-21T21:16:58.503Z,98774.22
2022-10-21T21:19:25.854Z,98762.34
2022-10-21T21:21:53.382Z,98767.72
2022-10-21T21:24:20.500Z,98778.59
2022-10-21T21:26:47.697Z,98753.53
2022-10-21T21:29:14.927Z,98762.41
2022-10-21T21:31:42.944Z,98769.75
2022-10-21T21:34:10.500Z,98791.66
2022-10-21T21:36:37.659Z,98766.38
2022-10-21T21:39:06.606Z,98782.94
2022-10-21T21:41:34.820Z,98814.91
2022-10-21T21:44:01.945Z,98783.50
2022-10-21T21:46:28.814Z,98811.38
2022-10-21T21:49:04.789Z,98827.88
2022-10-21T21:51:35.798Z,98816.31
2022-10-21T21:54:04.810Z,98783.16
2022-10-21T21:56:31.811Z,98795.47
2022-10-21T21:58:59.009Z,98808.72
2022-10-21T22:01:28.878Z,98841.69
2022-10-21T22:03:57.097Z,98846.28
2022-10-21T22:06:30.203Z,98849.06
2022-10-21T22:08:57.653Z,98851.94
2022-10-21T22:11:29.525Z,98856.84
2022-10-21T22:13:56.524Z,98870.34
2022-10-21T22:16:27.449Z,98859.28
2022-10-21T22:18:54.797Z,98883.19
2022-10-21T22:21:21.864Z,98875.69
2022-10-21T22:23:50.327Z,98854.47
2022-10-21T22:26:20.096Z,98849.63
2022-10-21T22:28:47.590Z,98855.09
2022-10-21T22:31:17.322Z,98852.59
2022-10-21T22:33:45.210Z,98855.31
2022-10-21T22:36:12.185Z,98862.38
2022-10-21T22:38:39.362Z,98861.38
2022-10-21T22:41:09.980Z,98858.03
2022-10-21T22:43:39.557Z,98824.81
2022-10-21T22:46:21.502Z,98826.75
2022-10-21T22:48:53.622Z,98774.56
2022-10-21T22:51:20.885Z,98765.41
2022-10-21T22:53:53.389Z,98788.03
2022-10-21T22:56:24.597Z,98801.69
2022-10-21T22:58:51.660Z,98813.00
2022-10-21T23:01:18.816Z,98817.63
2022-10-21T23:03:45.933Z,98826.06
2022-10-21T23:06:12.880Z,98802.09
2022-10-21T23:08:39.957Z,98781.59
2022-10-21T23:11:06.948Z,98800.84
2022-10-21T23:13:34.045Z,98808.53
2022-10-21T23:16:00.918Z,98797.56
2022-10-21T23:18:27.950Z,98816.75
2022-10-21T23:20:55.068Z,98820.81
2022-10-21T23:23:22.981Z,98827.41
2022-10-21T23:25:50.312Z,98805.94
2022-10-21T23:30:45.336Z,98810.84
2022-10-21T23:33:12.395Z,98805.16
2022-10-21T23:35:39.498Z,98793.13
2022-10-21T23:38:06.990Z,98789.84
2022-10-21T23:40:33.988Z,98807.91
2022-10-21T23:43:00.927Z,98817.88
2022-10-21T23:45:29.131Z,98786.81
2022-10-21T23:47:56.157Z,98795.53
2022-10-21T23:50:23.470Z,98803.81
2022-10-21T23:52:50.572Z,98804.72
2022-10-21T23:55:17.929Z,98799.66
2022-10-21T23:57:45.163Z,98791.06
